Time;durP1;ratioP1;P1;durP2;ratioP2;P2;SDS_P1;SDS_P2;PMS_P1;PMS_P2;Temp;Humidity;BMP_temperature;BMP_pressure;BME280_temperature;BME280_humidity;BME280_pressure;Samples;Min_cycle;Max_cycle;Signal;HPM_P1;HPM_P2
2023/05/16 00:02:02;;;;;;;15.48;14.20;;;16.00;97.80;;;;;;5034632;28;20203;-91
2023/05/16 00:04:27;;;;;;;14.83;13.47;;;16.10;97.50;;;;;;5034356;28;20382;-91
2023/05/16 00:06:53;;;;;;;15.15;13.90;;;16.10;97.90;;;;;;5035264;28;20190;-91
2023/05/16 00:09:19;;;;;;;15.40;14.20;;;16.10;98.70;;;;;;5035368;28;20219;-90
2023/05/16 00:11:47;;;;;;;14.75;13.45;;;16.10;97.30;;;;;;5035990;28;20192;-89
2023/05/16 00:14:13;;;;;;;14.98;13.85;;;16.10;98.20;;;;;;5038452;28;20261;-91
2023/05/16 00:16:40;;;;;;;15.83;14.13;;;16.10;98.40;;;;;;5041759;28;20172;-91
2023/05/16 00:22:28;;;;;;;15.33;14.20;;;15.90;99.60;;;;;;5015998;28;20176;-90
2023/05/16 00:24:54;;;;;;;15.52;14.18;;;15.90;99.90;;;;;;5021805;28;20214;-91
2023/05/16 00:27:20;;;;;;;15.97;14.07;;;15.90;99.90;;;;;;5034848;28;20556;-90
2023/05/16 00:29:46;;;;;;;13.90;12.70;;;16.00;99.90;;;;;;5036212;28;20193;-91
2023/05/16 00:32:11;;;;;;;14.52;13.35;;;16.00;99.60;;;;;;5035396;28;20179;-91
2023/05/16 00:34:37;;;;;;;14.75;13.65;;;16.00;99.10;;;;;;5035650;28;20282;-92
2023/05/16 00:37:03;;;;;;;14.38;13.32;;;16.00;99.80;;;;;;5034985;28;20186;-89
2023/05/16 00:39:29;;;;;;;16.00;14.70;;;16.10;99.90;;;;;;5035707;28;20192;-90
2023/05/16 00:41:56;;;;;;;15.98;14.57;;;16.10;98.30;;;;;;5034651;28;20198;-90
2023/05/16 00:44:22;;;;;;;13.63;12.63;;;16.00;99.80;;;;;;5026147;28;20197;-90
2023/05/16 00:46:47;;;;;;;14.02;13.02;;;16.10;98.40;;;;;;5031727;28;20240;-90
2023/05/16 00:49:13;;;;;;;15.40;14.00;;;16.00;98.60;;;;;;5033633;28;20810;-91
2023/05/16 00:51:39;;;;;;;14.07;13.07;;;16.10;97.60;;;;;;5032531;28;20550;-92
2023/05/16 00:54:05;;;;;;;14.20;13.10;;;16.10;98.00;;;;;;5029442;28;20215;-91
2023/05/16 00:56:32;;;;;;;13.48;12.55;;;16.10;98.80;;;;;;5031377;28;20257;-91
2023/05/16 00:58:57;;;;;;;14.40;13.30;;;16.10;98.30;;;;;;5032862;28;20185;-90
2023/05/16 01:01:26;;;;;;;15.30;14.20;;;16.00;98.30;;;;;;5034966;28;20271;-91
2023/05/16 01:03:52;;;;;;;15.10;14.00;;;15.90;98.30;;;;;;5033970;28;20200;-91
2023/05/16 01:06:18;;;;;;;14.65;13.57;;;15.80;99.60;;;;;;5034563;28;20195;-90
2023/05/16 01:08:44;;;;;;;15.63;14.52;;;15.80;99.50;;;;;;5035529;28;20190;-90
2023/05/16 01:11:33;;;;;;;15.75;14.35;;;15.80;99.90;;;;;;5034821;28;20203;-92
2023/05/16 01:14:07;;;;;;;16.17;14.98;;;15.80;99.90;;;;;;5035068;28;20599;-92
2023/05/16 01:16:45;;;;;;;16.88;15.35;;;15.90;98.20;;;;;;5035255;28;20247;-90
2023/05/16 01:19:32;;;;;;;14.33;13.23;;;16.00;97.60;;;;;;5035094;28;20707;-90
2023/05/16 01:22:26;;;;;;;15.30;14.00;;;15.90;98.90;;;;;;5035654;28;20231;-91
2023/05/16 01:25:19;;;;;;;15.83;14.63;;;15.90;99.70;;;;;;5033719;28;20195;-92
2023/05/16 01:27:45;;;;;;;15.10;14.00;;;15.90;99.40;;;;;;5034853;28;20166;-91
2023/05/16 01:30:16;;;;;;;15.83;14.73;;;15.90;99.90;;;;;;5027742;28;20192;-92
2023/05/16 01:32:41;;;;;;;15.70;14.37;;;15.70;99.20;;;;;;5037050;28;20203;-91
2023/05/16 01:35:10;;;;;;;15.68;14.38;;;15.70;99.50;;;;;;5055363;28;20200;-92
2023/05/16 01:37:41;;;;;;;16.77;15.40;;;15.70;99.90;;;;;;5048355;28;20194;-92
2023/05/16 01:40:19;;;;;;;17.50;16.03;;;15.70;99.70;;;;;;5034391;28;20213;-91
2023/05/16 01:42:47;;;;;;;17.43;15.93;;;15.70;99.40;;;;;;5016395;28;20642;-91
2023/05/16 01:45:36;;;;;;;16.77;15.20;;;15.70;99.90;;;;;;5033095;28;20238;-90
2023/05/16 01:48:12;;;;;;;15.67;14.33;;;15.70;99.80;;;;;;5031227;28;20185;-91
2023/05/16 01:50:43;;;;;;;16.63;15.13;;;15.60;99.90;;;;;;5032345;28;20237;-90
2023/05/16 01:53:17;;;;;;;16.13;14.93;;;15.60;99.90;;;;;;5031482;28;20287;-90
2023/05/16 01:55:50;;;;;;;18.00;16.40;;;15.50;99.90;;;;;;5034223;28;20162;-91
2023/05/16 01:58:20;;;;;;;16.70;15.23;;;15.70;99.60;;;;;;5015987;28;20180;-92
2023/05/16 02:00:46;;;;;;;16.33;15.03;;;15.70;98.50;;;;;;5034419;28;20183;-90
2023/05/16 02:03:11;;;;;;;16.67;15.47;;;15.70;97.50;;;;;;5034217;28;20211;-90
2023/05/16 02:05:37;;;;;;;17.40;15.73;;;15.80;99.20;;;;;;5035204;28;20187;-91
2023/05/16 02:08:04;;;;;;;16.93;15.63;;;15.80;97.40;;;;;;5034900;28;20310;-92
2023/05/16 02:10:30;;;;;;;16.97;15.53;;;15.70;96.60;;;;;;5033974;28;20205;-89
2023/05/16 02:12:56;;;;;;;17.80;16.40;;;15.70;98.30;;;;;;5034809;28;20215;-92
2023/05/16 02:15:21;;;;;;;19.20;17.53;;;15.60;96.10;;;;;;5017310;28;20681;-91
2023/05/16 02:17:47;;;;;;;17.77;16.27;;;15.60;96.20;;;;;;5020070;28;20280;-92
2023/05/16 02:20:13;;;;;;;18.47;16.87;;;15.70;95.50;;;;;;5037986;28;20190;-90
2023/05/16 02:22:39;;;;;;;20.17;18.50;;;15.70;94.00;;;;;;5038781;28;20184;-89
2023/05/16 02:25:05;;;;;;;21.30;19.33;;;15.70;95.70;;;;;;5038536;28;20293;-91
2023/05/16 02:27:31;;;;;;;21.13;19.33;;;15.70;93.60;;;;;;5040733;28;20181;-91
2023/05/16 02:29:57;;;;;;;21.40;19.40;;;15.70;90.60;;;;;;5039173;28;20677;-92
2023/05/16 02:32:22;;;;;;;23.27;21.03;;;15.70;91.10;;;;;;5040094;28;20206;-90
2023/05/16 02:34:48;;;;;;;23.47;21.53;;;15.60;91.60;;;;;;5042402;28;20229;-91
2023/05/16 02:37:14;;;;;;;23.73;21.70;;;15.70;91.20;;;;;;5024116;28;20183;-91
2023/05/16 02:39:40;;;;;;;20.63;18.63;;;15.70;90.20;;;;;;5020777;28;20708;-90
2023/05/16 02:42:06;;;;;;;19.60;17.90;;;15.60;92.80;;;;;;5037539;28;20594;-92
2023/05/16 02:44:31;;;;;;;21.10;19.33;;;15.60;92.70;;;;;;5031189;28;20236;-91
2023/05/16 02:46:57;;;;;;;23.27;21.23;;;15.50;93.10;;;;;;5036148;28;20182;-91
2023/05/16 02:49:23;;;;;;;18.70;17.20;;;15.50;92.90;;;;;;5035862;28;20181;-92
2023/05/16 02:51:49;;;;;;;21.80;19.90;;;15.50;94.40;;;;;;5034943;28;20587;-90
2023/05/16 02:54:14;;;;;;;20.00;18.17;;;15.50;95.30;;;;;;5034970;28;20244;-91
2023/05/16 02:56:40;;;;;;;22.53;20.53;;;15.40;95.20;;;;;;5036062;28;20177;-90
2023/05/16 02:59:06;;;;;;;23.97;21.77;;;15.30;95.60;;;;;;5036196;28;20187;-91
2023/05/16 03:01:32;;;;;;;21.03;19.13;;;15.40;94.00;;;;;;5039142;28;20192;-91
2023/05/16 03:03:58;;;;;;;23.30;20.93;;;15.40;94.50;;;;;;5037468;28;20220;-91
2023/05/16 03:06:24;;;;;;;21.10;19.33;;;15.30;96.10;;;;;;5038794;28;20761;-92
2023/05/16 03:08:49;;;;;;;23.17;20.87;;;15.20;97.50;;;;;;5041570;28;20223;-91
2023/05/16 03:11:19;;;;;;;22.57;20.60;;;15.20;96.10;;;;;;5038834;28;20205;-92
2023/05/16 03:13:45;;;;;;;24.90;22.47;;;15.20;96.40;;;;;;5037701;28;20200;-91
2023/05/16 03:16:11;;;;;;;25.27;22.97;;;15.10;93.20;;;;;;5038191;28;20251;-90
2023/05/16 03:18:36;;;;;;;24.27;22.17;;;15.00;90.10;;;;;;5019228;28;20178;-90
2023/05/16 03:21:02;;;;;;;26.17;23.73;;;14.90;92.60;;;;;;5036760;28;20642;-91
2023/05/16 03:23:27;;;;;;;25.50;22.80;;;14.90;90.60;;;;;;5037524;28;20235;-91
2023/05/16 03:25:53;;;;;;;25.57;23.33;;;14.80;90.70;;;;;;5018339;28;20212;-92
2023/05/16 03:28:19;;;;;;;25.83;23.43;;;14.80;89.80;;;;;;5035886;28;20614;-91
2023/05/16 03:30:44;;;;;;;24.93;22.73;;;14.70;90.20;;;;;;5037965;28;20197;-91
2023/05/16 03:33:10;;;;;;;24.97;22.77;;;14.70;90.10;;;;;;5037479;28;20198;-90
2023/05/16 03:35:36;;;;;;;25.30;23.00;;;14.70;88.60;;;;;;5018876;28;20264;-92
2023/05/16 03:38:02;;;;;;;26.00;23.60;;;14.70;89.50;;;;;;5035456;28;20183;-91
2023/05/16 03:40:28;;;;;;;27.47;24.83;;;14.70;89.60;;;;;;5017436;28;20251;-91
2023/05/16 03:42:54;;;;;;;25.27;22.97;;;14.80;89.00;;;;;;5034466;28;20193;-92
2023/05/16 03:45:19;;;;;;;24.20;22.00;;;14.80;89.60;;;;;;5015843;28;20232;-91
2023/05/16 03:47:45;;;;;;;25.57;23.10;;;14.80;90.00;;;;;;5016845;28;20187;-93
2023/05/16 03:50:11;;;;;;;27.37;24.87;;;14.80;90.00;;;;;;5015303;28;20189;-92
2023/05/16 03:52:37;;;;;;;24.43;22.13;;;14.90;88.90;;;;;;5034551;28;20443;-92
2023/05/16 03:55:04;;;;;;;25.20;22.80;;;14.90;87.90;;;;;;5035923;28;20203;-92
2023/05/16 03:57:31;;;;;;;26.27;23.87;;;14.90;89.30;;;;;;5037105;28;20177;-91
2023/05/16 03:59:57;;;;;;;26.77;23.27;;;14.90;89.60;;;;;;5036974;28;20250;-92
2023/05/16 04:02:22;;;;;;;25.70;23.07;;;14.90;89.50;;;;;;5037338;28;20219;-92
2023/05/16 04:04:48;;;;;;;25.97;23.47;;;14.90;87.70;;;;;;5036283;28;20595;-91
2023/05/16 04:07:14;;;;;;;24.43;22.17;;;14.80;90.10;;;;;;5037431;28;20273;-91
2023/05/16 04:09:39;;;;;;;25.33;23.00;;;14.90;90.30;;;;;;5021744;28;20186;-92
2023/05/16 04:12:05;;;;;;;23.77;21.43;;;14.90;89.30;;;;;;5038763;28;20669;-92
2023/05/16 04:14:32;;;;;;;24.27;22.07;;;15.00;87.50;;;;;;5038522;28;20698;-89
2023/05/16 04:16:58;;;;;;;23.53;21.27;;;14.90;87.20;;;;;;5037032;28;20181;-92
2023/05/16 04:19:24;;;;;;;23.27;21.07;;;14.90;87.00;;;;;;5035555;28;20204;-92
2023/05/16 04:21:51;;;;;;;23.63;21.43;;;14.90;86.40;;;;;;5017690;28;20174;-92
2023/05/16 04:24:17;;;;;;;23.30;21.10;;;14.80;87.80;;;;;;5017775;28;20270;-92
2023/05/16 04:26:42;;;;;;;23.93;21.73;;;14.80;88.00;;;;;;5035974;28;20550;-90
2023/05/16 04:29:08;;;;;;;24.13;21.87;;;14.80;88.40;;;;;;5020207;28;20227;-90
2023/05/16 04:31:33;;;;;;;23.33;21.13;;;14.80;87.60;;;;;;5035750;28;20200;-91
2023/05/16 04:34:00;;;;;;;23.90;21.63;;;14.80;88.00;;;;;;5036029;28;20264;-91
2023/05/16 04:36:28;;;;;;;21.73;19.83;;;14.70;88.00;;;;;;5035938;28;20201;-91
2023/05/16 04:38:55;;;;;;;22.40;20.30;;;14.70;87.00;;;;;;5030836;28;20353;-91
2023/05/16 04:41:21;;;;;;;21.30;19.40;;;14.70;87.50;;;;;;5014761;28;20188;-90
2023/05/16 04:43:47;;;;;;;22.23;20.03;;;14.70;86.90;;;;;;5014434;28;20296;-90
2023/05/16 04:46:14;;;;;;;21.93;19.93;;;14.70;87.40;;;;;;5028898;28;20644;-90
2023/05/16 04:48:40;;;;;;;22.33;20.20;;;14.70;85.50;;;;;;5035870;28;20617;-90
2023/05/16 04:51:06;;;;;;;22.50;20.27;;;14.60;87.50;;;;;;5036544;28;20243;-91
2023/05/16 04:53:32;;;;;;;20.80;18.80;;;14.60;87.80;;;;;;5036794;28;20197;-89
2023/05/16 04:55:57;;;;;;;20.67;18.67;;;14.60;86.70;;;;;;5036183;28;20260;-90
2023/05/16 04:58:23;;;;;;;21.33;19.03;;;14.60;87.20;;;;;;5019032;28;20253;-91
2023/05/16 05:00:50;;;;;;;21.97;19.70;;;14.60;87.70;;;;;;5036779;28;20191;-90
2023/05/16 05:03:16;;;;;;;21.93;19.97;;;14.50;87.60;;;;;;5037113;28;20682;-91
2023/05/16 05:05:42;;;;;;;21.63;19.40;;;14.40;88.00;;;;;;5037458;28;20281;-88
2023/05/16 05:08:08;;;;;;;21.30;19.13;;;14.30;88.70;;;;;;5036863;28;20650;-92
2023/05/16 05:10:34;;;;;;;20.20;18.40;;;14.30;89.00;;;;;;5036243;28;20688;-93
2023/05/16 05:13:01;;;;;;;20.27;18.47;;;14.30;87.70;;;;;;5036213;28;20203;-91
2023/05/16 05:15:26;;;;;;;20.87;18.63;;;14.30;87.00;;;;;;5036321;28;20271;-90
2023/05/16 05:17:52;;;;;;;21.87;19.60;;;14.20;87.10;;;;;;5035856;28;20223;-89
2023/05/16 05:20:18;;;;;;;19.47;17.53;;;14.20;87.60;;;;;;5035564;28;20183;-90
2023/05/16 05:22:43;;;;;;;157.97;53.60;;;14.20;88.90;;;;;;5035831;28;20555;-88
2023/05/16 05:25:09;;;;;;;23.83;19.80;;;14.20;88.50;;;;;;5036680;28;20227;-89
2023/05/16 05:27:35;;;;;;;23.50;21.00;;;14.20;87.70;;;;;;5035161;28;20218;-88
2023/05/16 05:30:01;;;;;;;20.87;18.73;;;14.20;88.00;;;;;;5035936;28;20286;-90
2023/05/16 05:32:27;;;;;;;25.47;21.87;;;14.20;87.80;;;;;;5000161;28;20182;-89
2023/05/16 05:34:52;;;;;;;20.00;17.97;;;14.20;87.80;;;;;;5036135;28;20245;-85
2023/05/16 05:37:18;;;;;;;21.60;18.57;;;14.30;87.70;;;;;;5036111;28;20185;-88
2023/05/16 05:39:44;;;;;;;28.73;25.50;;;14.30;87.30;;;;;;5035765;28;20266;-85
2023/05/16 05:42:10;;;;;;;23.00;20.93;;;14.40;87.00;;;;;;5037002;28;20211;-89
2023/05/16 05:44:36;;;;;;;20.47;18.27;;;14.50;87.90;;;;;;5018630;28;20204;-90
2023/05/16 05:47:03;;;;;;;24.47;22.30;;;14.40;85.60;;;;;;5019135;28;20278;-90
2023/05/16 05:49:30;;;;;;;21.60;19.30;;;14.30;85.90;;;;;;5017374;28;20183;-91
2023/05/16 05:51:55;;;;;;;19.47;17.43;;;14.20;86.80;;;;;;5022083;28;20192;-90
2023/05/16 05:54:22;;;;;;;20.13;17.07;;;14.00;87.70;;;;;;5040360;28;20466;-89
2023/05/16 05:56:48;;;;;;;20.13;18.00;;;14.00;87.30;;;;;;5021794;28;20201;-91
2023/05/16 05:59:14;;;;;;;20.50;18.40;;;13.80;88.50;;;;;;5039798;28;20264;-89
2023/05/16 06:01:40;;;;;;;19.17;17.00;;;13.70;89.80;;;;;;5039144;28;20192;-91
2023/05/16 06:04:05;;;;;;;19.80;17.60;;;13.70;89.80;;;;;;5038969;28;20764;-89
2023/05/16 06:06:31;;;;;;;18.63;16.73;;;13.60;89.50;;;;;;5038799;28;20183;-90
2023/05/16 06:08:57;;;;;;;18.80;16.90;;;13.60;89.80;;;;;;5021705;28;20184;-90
2023/05/16 06:11:24;;;;;;;20.13;17.23;;;13.60;89.10;;;;;;5039072;28;20224;-89
2023/05/16 06:13:50;;;;;;;17.97;16.17;;;13.60;89.90;;;;;;5038988;28;20697;-90
2023/05/16 06:16:16;;;;;;;18.50;16.57;;;13.70;89.70;;;;;;5038877;28;20264;-90
2023/05/16 06:18:42;;;;;;;16.80;15.00;;;13.70;89.40;;;;;;5038688;28;20204;-90
2023/05/16 06:21:08;;;;;;;16.90;15.20;;;13.60;89.70;;;;;;5037568;28;20207;-93
2023/05/16 06:23:34;;;;;;;16.40;14.60;;;13.50;90.80;;;;;;5021715;28;20197;-91
2023/05/16 06:26:03;;;;;;;17.07;15.27;;;13.70;89.60;;;;;;5038429;28;20174;-89
2023/05/16 06:28:29;;;;;;;16.40;14.77;;;13.80;89.00;;;;;;5041074;28;20188;-89
2023/05/16 06:30:54;;;;;;;14.47;12.93;;;13.90;88.10;;;;;;5039045;28;20201;-90
2023/05/16 06:33:20;;;;;;;16.20;13.00;;;13.90;88.60;;;;;;5037164;28;20283;-91
2023/05/16 06:35:47;;;;;;;14.57;13.17;;;14.00;87.70;;;;;;5036452;28;20209;-90
2023/05/16 06:38:13;;;;;;;14.83;13.33;;;14.10;87.90;;;;;;5037243;28;20237;-91
2023/05/16 06:40:39;;;;;;;14.10;11.83;;;14.20;87.40;;;;;;5040245;28;20417;-89
2023/05/16 06:43:05;;;;;;;13.23;11.93;;;14.20;86.50;;;;;;5022690;28;20375;-91
2023/05/16 06:45:31;;;;;;;13.60;12.00;;;14.00;87.50;;;;;;5023661;28;20187;-91
2023/05/16 06:47:57;;;;;;;11.47;10.27;;;14.10;88.00;;;;;;5020046;28;20686;-90
2023/05/16 06:50:22;;;;;;;11.37;10.27;;;13.90;87.60;;;;;;5000400;28;20210;-90
2023/05/16 06:52:48;;;;;;;10.37;9.27;;;13.80;87.90;;;;;;5017513;28;20259;-90
2023/05/16 06:55:14;;;;;;;10.37;8.50;;;13.90;87.90;;;;;;5031169;28;20216;-91
2023/05/16 06:57:40;;;;;;;9.70;8.13;;;13.80;87.50;;;;;;5036992;28;20174;-91
2023/05/16 07:00:07;;;;;;;9.17;7.17;;;13.80;86.00;;;;;;5037073;28;20658;-91
2023/05/16 07:02:32;;;;;;;6.90;6.27;;;13.70;86.20;;;;;;5036176;28;20212;-91
2023/05/16 07:04:58;;;;;;;6.60;6.00;;;13.60;86.10;;;;;;5036392;28;20215;-91
2023/05/16 07:07:24;;;;;;;5.77;5.20;;;13.50;85.40;;;;;;5018755;28;20576;-90
2023/05/16 07:09:49;;;;;;;5.47;4.97;;;13.50;85.40;;;;;;5038497;28;20208;-87
2023/05/16 07:12:15;;;;;;;5.90;5.27;;;13.60;86.30;;;;;;5019554;28;20188;-88
2023/05/16 07:14:42;;;;;;;5.33;4.83;;;13.70;85.70;;;;;;5038617;28;20290;-88
2023/05/16 07:17:08;;;;;;;5.70;4.80;;;13.70;84.90;;;;;;5037699;28;20268;-88
2023/05/16 07:19:33;;;;;;;5.60;4.60;;;13.70;85.40;;;;;;5037374;28;20662;-84
2023/05/16 07:21:59;;;;;;;4.80;4.40;;;13.70;85.70;;;;;;5038899;28;20659;-90
2023/05/16 07:24:25;;;;;;;15.60;14.40;;;13.80;85.90;;;;;;5037801;28;20666;-85
2023/05/16 07:26:50;;;;;;;10.50;9.70;;;13.90;86.20;;;;;;5038328;28;20243;-86
2023/05/16 07:29:16;;;;;;;62.63;57.80;;;14.00;85.20;;;;;;5037704;28;20215;-84
2023/05/16 07:31:42;;;;;;;17.53;16.33;;;14.10;83.40;;;;;;5038262;28;20228;-86
2023/05/16 07:34:09;;;;;;;6.30;5.80;;;14.10;83.20;;;;;;5037238;28;20808;-85
2023/05/16 07:36:35;;;;;;;4.13;3.83;;;14.10;81.30;;;;;;5036845;28;20268;-86
2023/05/16 07:39:00;;;;;;;3.40;3.20;;;14.10;81.90;;;;;;5038345;28;20220;-85
2023/05/16 07:41:26;;;;;;;2.63;2.43;;;14.10;81.70;;;;;;5039776;28;20272;-91
2023/05/16 07:43:52;;;;;;;2.80;2.60;;;14.10;80.70;;;;;;5040476;28;20424;-94
2023/05/16 07:46:17;;;;;;;3.00;2.70;;;14.00;81.10;;;;;;5031361;28;20655;-91
2023/05/16 07:48:43;;;;;;;2.60;2.40;;;14.00;82.20;;;;;;5030703;28;20185;-91
2023/05/16 07:51:08;;;;;;;4.90;2.50;;;14.00;81.80;;;;;;5010309;28;20228;-91
2023/05/16 07:53:34;;;;;;;2.60;2.40;;;14.10;81.10;;;;;;5014851;28;20204;-91
2023/05/16 07:56:00;;;;;;;2.17;2.07;;;14.00;81.80;;;;;;5029345;28;20186;-91
2023/05/16 07:58:27;;;;;;;2.47;2.27;;;14.00;82.30;;;;;;5014925;28;20186;-94
2023/05/16 08:00:53;;;;;;;2.50;2.30;;;14.10;81.80;;;;;;5032818;28;20211;-91
2023/05/16 08:03:18;;;;;;;2.67;2.47;;;14.10;81.00;;;;;;5029769;28;20500;-90
2023/05/16 08:05:44;;;;;;;3.93;2.30;;;14.10;79.60;;;;;;5030180;28;20193;-91
2023/05/16 08:08:09;;;;;;;2.30;2.10;;;14.00;80.10;;;;;;5032907;28;20273;-93
2023/05/16 08:10:35;;;;;;;2.43;2.23;;;14.00;80.80;;;;;;5031673;28;20664;-92
2023/05/16 08:13:01;;;;;;;2.37;1.97;;;14.00;81.10;;;;;;5031291;28;20189;-92
2023/05/16 08:15:27;;;;;;;1.93;1.83;;;13.90;80.30;;;;;;5011716;28;20193;-92
2023/05/16 08:17:57;;;;;;;2.10;2.00;;;14.10;80.70;;;;;;5011874;28;20558;-91
2023/05/16 08:20:25;;;;;;;2.10;2.00;;;14.10;80.20;;;;;;5029664;28;20711;-91
2023/05/16 08:22:51;;;;;;;2.37;2.20;;;14.10;79.80;;;;;;5011587;28;20291;-94
2023/05/16 08:25:17;;;;;;;2.00;1.90;;;14.10;79.20;;;;;;5029253;28;20241;-94
2023/05/16 08:27:44;;;;;;;1.90;1.80;;;14.10;79.50;;;;;;5031329;28;20198;-90
2023/05/16 08:30:11;;;;;;;2.33;2.10;;;14.20;79.40;;;;;;5032750;28;20197;-92
2023/05/16 08:32:36;;;;;;;2.10;2.00;;;14.10;78.00;;;;;;5031206;28;20466;-91
2023/05/16 08:35:02;;;;;;;2.10;2.00;;;14.10;78.00;;;;;;5029426;28;20204;-92
2023/05/16 08:37:28;;;;;;;2.27;2.07;;;14.20;78.10;;;;;;5028014;28;20536;-92
2023/05/16 08:39:54;;;;;;;2.10;2.00;;;14.20;77.10;;;;;;5030466;28;20261;-94
2023/05/16 08:42:19;;;;;;;3.43;1.80;;;14.40;77.50;;;;;;5032689;28;20186;-91
2023/05/16 08:44:45;;;;;;;2.63;2.30;;;14.40;78.70;;;;;;5032875;28;20634;-92
2023/05/16 08:47:17;;;;;;;1.90;1.80;;;14.30;76.40;;;;;;5011388;28;20687;-92
2023/05/16 08:49:46;;;;;;;2.13;2.03;;;14.30;76.70;;;;;;5048996;28;20197;-93
2023/05/16 08:52:13;;;;;;;2.43;2.27;;;14.20;77.70;;;;;;5047281;28;20192;-95
2023/05/16 08:54:39;;;;;;;2.27;2.17;;;14.20;76.10;;;;;;5050199;28;20200;-95
2023/05/16 08:57:07;;;;;;;2.57;2.40;;;14.20;77.30;;;;;;5053342;28;20181;-94
2023/05/16 08:59:34;;;;;;;2.60;2.40;;;14.10;77.20;;;;;;5049199;28;20189;-95
2023/05/16 09:02:00;;;;;;;5.00;2.30;;;14.30;76.80;;;;;;5045457;28;20239;-94
2023/05/16 09:04:26;;;;;;;2.40;2.30;;;14.30;76.90;;;;;;5049409;28;20216;-95
2023/05/16 09:06:52;;;;;;;2.40;2.20;;;14.30;75.60;;;;;;5040700;28;20194;-92
2023/05/16 09:09:18;;;;;;;2.57;2.37;;;14.30;76.40;;;;;;5030776;28;20605;-93
2023/05/16 09:11:44;;;;;;;2.83;2.40;;;14.20;76.20;;;;;;5011705;28;20201;-93
2023/05/16 09:14:10;;;;;;;2.33;2.13;;;14.30;76.80;;;;;;5030776;28;20292;-93
2023/05/16 09:16:36;;;;;;;3.33;2.60;;;14.20;76.40;;;;;;5007484;28;20185;-92
2023/05/16 09:19:03;;;;;;;2.67;2.47;;;14.20;77.10;;;;;;5028831;28;20186;-94
2023/05/16 09:21:33;;;;;;;2.40;2.30;;;14.10;77.10;;;;;;5027520;28;20180;-93
2023/05/16 09:24:07;;;;;;;2.63;2.17;;;14.10;76.60;;;;;;5007837;28;20266;-93
2023/05/16 09:26:34;;;;;;;2.53;2.40;;;14.10;77.50;;;;;;5022918;28;20517;-92
2023/05/16 09:29:01;;;;;;;2.73;2.53;;;13.90;78.00;;;;;;5008036;28;20204;-94
2023/05/16 09:31:36;;;;;;;2.30;2.10;;;13.70;78.60;;;;;;5029165;28;20215;-93
2023/05/16 09:34:07;;;;;;;2.43;2.33;;;13.70;79.60;;;;;;5010261;28;20211;-92
2023/05/16 09:36:32;;;;;;;2.23;2.10;;;13.80;79.00;;;;;;5007882;28;20185;-93
2023/05/16 09:38:59;;;;;;;2.00;1.90;;;14.00;78.90;;;;;;5032346;28;20193;-92
2023/05/16 09:41:25;;;;;;;4.53;2.10;;;14.00;79.00;;;;;;5031248;28;20212;-91
2023/05/16 09:43:50;;;;;;;2.53;2.33;;;13.90;79.20;;;;;;5012286;28;20227;-94
2023/05/16 09:46:18;;;;;;;2.30;2.10;;;14.00;77.90;;;;;;5013149;28;20731;-92
2023/05/16 09:48:47;;;;;;;2.20;2.00;;;14.10;77.30;;;;;;5014145;28;20274;-91
2023/05/16 09:51:13;;;;;;;13.43;3.30;;;14.00;77.30;;;;;;5031856;28;20290;-91
2023/05/16 09:53:40;;;;;;;2.23;2.03;;;14.00;77.80;;;;;;5012463;28;20437;-92
2023/05/16 09:56:11;;;;;;;2.07;1.97;;;13.70;77.80;;;;;;5011393;28;20673;-90
2023/05/16 09:58:39;;;;;;;2.27;2.07;;;13.50;79.50;;;;;;5031197;28;20200;-91
2023/05/16 10:01:06;;;;;;;2.00;1.90;;;13.60;79.70;;;;;;5030722;28;20553;-93
2023/05/16 10:03:39;;;;;;;1.90;1.80;;;13.60;79.10;;;;;;5031522;28;20763;-89
2023/05/16 10:06:06;;;;;;;2.73;2.00;;;13.90;77.40;;;;;;5011267;28;20230;-92
2023/05/16 10:08:35;;;;;;;2.30;2.10;;;14.00;77.30;;;;;;5010060;28;20252;-93
2023/05/16 10:11:02;;;;;;;2.07;1.97;;;14.00;76.90;;;;;;5031014;28;20973;-92
2023/05/16 10:13:29;;;;;;;1.90;1.80;;;14.10;75.20;;;;;;5029833;28;20702;-90
2023/05/16 10:15:57;;;;;;;1.83;1.73;;;14.20;75.40;;;;;;5008328;28;20225;-91
2023/05/16 10:18:30;;;;;;;1.93;1.70;;;14.50;73.70;;;;;;5028777;28;20402;-92
2023/05/16 10:21:09;;;;;;;3.80;1.90;;;14.80;73.20;;;;;;5028957;28;20680;-92
2023/05/16 10:23:36;;;;;;;3.83;2.20;;;14.80;72.50;;;;;;5028722;28;20467;-91
2023/05/16 10:26:04;;;;;;;1.90;1.80;;;15.00;72.60;;;;;;5025646;28;20196;-91
2023/05/16 10:28:31;;;;;;;2.07;1.97;;;15.30;71.00;;;;;;5027062;28;20406;-91
2023/05/16 10:30:58;;;;;;;1.90;1.80;;;15.30;69.10;;;;;;5028304;28;20267;-93
2023/05/16 10:33:23;;;;;;;3.37;2.00;;;14.80;70.60;;;;;;5029267;28;20585;-90
2023/05/16 10:35:49;;;;;;;2.07;1.87;;;14.50;72.20;;;;;;5027380;28;20196;-91
2023/05/16 10:38:17;;;;;;;3.30;1.90;;;14.40;72.60;;;;;;5033419;28;20196;-90
2023/05/16 10:40:44;;;;;;;2.30;1.80;;;14.40;72.10;;;;;;5032820;28;20268;-90
2023/05/16 10:43:09;;;;;;;3.53;1.90;;;14.20;73.80;;;;;;5031652;28;20185;-91
2023/05/16 10:45:41;;;;;;;1.90;1.80;;;14.20;73.70;;;;;;5043614;28;20240;-92
2023/05/16 10:48:11;;;;;;;2.63;1.70;;;14.30;73.70;;;;;;5032614;28;20227;-93
2023/05/16 10:50:44;;;;;;;2.00;1.80;;;14.20;73.00;;;;;;5032439;28;20338;-89
2023/05/16 10:53:13;;;;;;;5.77;2.70;;;14.20;73.20;;;;;;5032608;28;20239;-92
2023/05/16 10:55:43;;;;;;;3.23;1.97;;;14.10;72.30;;;;;;5028909;28;20189;-92
2023/05/16 10:58:08;;;;;;;3.27;2.00;;;14.00;74.30;;;;;;5032815;28;20519;-93
2023/05/16 11:00:34;;;;;;;5.67;1.87;;;13.90;73.50;;;;;;5033287;28;20245;-91
2023/05/16 11:03:24;;;;;;;1.80;1.70;;;13.90;74.00;;;;;;5033513;28;20194;-91
2023/05/16 11:05:53;;;;;;;1.63;1.53;;;13.80;74.00;;;;;;5031932;28;20188;-94
2023/05/16 11:08:19;;;;;;;1.70;1.60;;;13.80;74.60;;;;;;5034439;28;20291;-90
2023/05/16 11:10:44;;;;;;;1.80;1.70;;;13.80;74.80;;;;;;5031396;28;20594;-91
2023/05/16 11:13:10;;;;;;;3.80;1.87;;;13.80;74.50;;;;;;5014072;28;20196;-91
2023/05/16 11:15:36;;;;;;;1.90;1.80;;;13.80;74.40;;;;;;5031264;28;20177;-94
2023/05/16 11:18:12;;;;;;;1.83;1.73;;;13.90;72.90;;;;;;5030891;28;20222;-93
2023/05/16 11:20:39;;;;;;;2.10;2.00;;;13.90;73.50;;;;;;5032785;28;20187;-91
2023/05/16 11:23:20;;;;;;;1.97;1.83;;;14.10;72.10;;;;;;5032287;28;20654;-92
2023/05/16 11:25:57;;;;;;;3.23;1.80;;;14.10;72.80;;;;;;5031094;28;20188;-91
2023/05/16 11:28:26;;;;;;;2.63;1.80;;;14.20;72.50;;;;;;5032413;28;20202;-91
2023/05/16 11:30:56;;;;;;;3.23;1.67;;;14.30;71.40;;;;;;5032173;28;20594;-90
2023/05/16 11:33:23;;;;;;;4.63;1.70;;;14.40;71.10;;;;;;5016991;28;20217;-94
2023/05/16 11:36:08;;;;;;;2.37;1.60;;;14.20;69.60;;;;;;5033572;28;20208;-94
2023/05/16 11:38:34;;;;;;;2.83;1.80;;;14.10;70.70;;;;;;5036000;28;20198;-92
2023/05/16 11:41:05;;;;;;;2.10;1.90;;;14.20;71.40;;;;;;5017374;28;20764;-91
2023/05/16 11:43:50;;;;;;;5.17;1.87;;;14.10;70.90;;;;;;5014032;28;20208;-92
2023/05/16 11:46:16;;;;;;;4.70;1.83;;;14.20;70.80;;;;;;5029760;28;20204;-92
2023/05/16 11:48:44;;;;;;;4.37;2.43;;;14.20;70.70;;;;;;5032616;28;20193;-91
2023/05/16 11:51:09;;;;;;;2.00;1.53;;;14.30;70.80;;;;;;5034200;28;20310;-90
2023/05/16 11:53:37;;;;;;;2.10;1.77;;;14.20;69.40;;;;;;5034354;28;20268;-93
2023/05/16 11:56:03;;;;;;;1.73;1.63;;;14.10;69.70;;;;;;5014670;28;20247;-91
2023/05/16 11:58:28;;;;;;;1.83;1.73;;;14.10;70.30;;;;;;5017652;28;20228;-91
2023/05/16 12:00:54;;;;;;;1.90;1.80;;;14.20;69.70;;;;;;5032604;28;20187;-92
2023/05/16 12:03:22;;;;;;;1.73;1.67;;;14.30;69.90;;;;;;5017071;28;20233;-91
2023/05/16 12:05:53;;;;;;;2.10;1.90;;;14.20;68.00;;;;;;5033961;28;20192;-90
2023/05/16 12:08:20;;;;;;;2.00;1.80;;;14.20;69.00;;;;;;5031553;28;20239;-91
2023/05/16 12:10:49;;;;;;;3.60;2.00;;;14.30;69.70;;;;;;5033591;28;20201;-91
2023/05/16 12:13:16;;;;;;;2.60;1.93;;;14.50;69.60;;;;;;5015917;28;20291;-87
2023/05/16 12:15:42;;;;;;;1.83;1.73;;;14.50;69.30;;;;;;5027872;28;20272;-92
2023/05/16 12:18:08;;;;;;;2.23;2.03;;;14.20;69.20;;;;;;5030312;28;20182;-92
2023/05/16 12:20:34;;;;;;;3.33;2.00;;;14.00;71.10;;;;;;5035175;28;20195;-92
2023/05/16 12:23:00;;;;;;;2.07;1.97;;;13.80;71.90;;;;;;5035522;28;20550;-92
2023/05/16 12:25:30;;;;;;;3.00;2.30;;;13.80;71.70;;;;;;5031384;28;20197;-91
2023/05/16 12:27:57;;;;;;;2.00;1.87;;;13.80;72.10;;;;;;5032851;28;20189;-91
2023/05/16 12:30:25;;;;;;;2.53;2.10;;;13.90;71.80;;;;;;5033468;28;20449;-90
2023/05/16 12:32:57;;;;;;;2.87;2.33;;;13.90;71.30;;;;;;5031364;28;20216;-90
2023/05/16 12:35:33;;;;;;;2.50;2.30;;;14.10;71.70;;;;;;5029662;28;20197;-88
2023/05/16 12:38:02;;;;;;;3.63;2.77;;;14.10;71.20;;;;;;5029114;28;20224;-90
2023/05/16 12:40:28;;;;;;;4.93;2.80;;;14.00;71.30;;;;;;5011498;28;20181;-90